sensor_id;sensor_type;location;lat;lon;timestamp;P1;durP1;ratioP1;P2;durP2;ratioP2
66478;SDS011;53294;47.912;13.526;2023-03-01T00:00:13;23.23;;;14.45;;
66478;SDS011;53294;47.912;13.526;2023-03-01T00:02:40;20.30;;;12.55;;
66478;SDS011;53294;47.912;13.526;2023-03-01T00:05:07;21.55;;;13.07;;
66478;SDS011;53294;47.912;13.526;2023-03-01T00:07:34;20.83;;;13.88;;
66478;SDS011;53294;47.912;13.526;2023-03-01T00:10:00;22.40;;;12.88;;
66478;SDS011;53294;47.912;13.526;2023-03-01T00:12:27;21.73;;;12.60;;
66478;SDS011;53294;47.912;13.526;2023-03-01T00:14:54;24.13;;;13.50;;
66478;SDS011;53294;47.912;13.526;2023-03-01T00:17:20;21.40;;;14.15;;
66478;SDS011;53294;47.912;13.526;2023-03-01T00:19:47;21.38;;;12.75;;
66478;SDS011;53294;47.912;13.526;2023-03-01T00:22:14;21.38;;;12.55;;
66478;SDS011;53294;47.912;13.526;2023-03-01T00:24:40;20.65;;;12.15;;
66478;SDS011;53294;47.912;13.526;2023-03-01T00:27:07;22.75;;;15.02;;
66478;SDS011;53294;47.912;13.526;2023-03-01T00:29:33;22.70;;;12.60;;
66478;SDS011;53294;47.912;13.526;2023-03-01T00:32:00;22.67;;;14.23;;
66478;SDS011;53294;47.912;13.526;2023-03-01T00:34:27;20.73;;;13.05;;
66478;SDS011;53294;47.912;13.526;2023-03-01T00:36:53;22.42;;;13.15;;
66478;SDS011;53294;47.912;13.526;2023-03-01T00:39:20;21.73;;;12.48;;
66478;SDS011;53294;47.912;13.526;2023-03-01T00:41:47;20.17;;;11.95;;
66478;SDS011;53294;47.912;13.526;2023-03-01T00:44:13;21.67;;;12.45;;
66478;SDS011;53294;47.912;13.526;2023-03-01T00:46:40;23.67;;;14.20;;
66478;SDS011;53294;47.912;13.526;2023-03-01T00:49:07;23.98;;;12.32;;
66478;SDS011;53294;47.912;13.526;2023-03-01T00:51:34;22.40;;;13.30;;
66478;SDS011;53294;47.912;13.526;2023-03-01T00:54:01;19.00;;;11.13;;
66478;SDS011;53294;47.912;13.526;2023-03-01T00:56:29;25.48;;;15.27;;
66478;SDS011;53294;47.912;13.526;2023-03-01T00:58:57;24.38;;;13.27;;
66478;SDS011;53294;47.912;13.526;2023-03-01T01:01:24;23.58;;;13.15;;
66478;SDS011;53294;47.912;13.526;2023-03-01T01:06:25;23.35;;;12.50;;
66478;SDS011;53294;47.912;13.526;2023-03-01T01:08:54;20.58;;;12.10;;
66478;SDS011;53294;47.912;13.526;2023-03-01T01:11:22;22.38;;;13.10;;
66478;SDS011;53294;47.912;13.526;2023-03-01T01:13:50;27.52;;;15.45;;
66478;SDS011;53294;47.912;13.526;2023-03-01T01:16:18;19.83;;;11.88;;
66478;SDS011;53294;47.912;13.526;2023-03-01T01:18:47;21.35;;;12.48;;
66478;SDS011;53294;47.912;13.526;2023-03-01T01:21:15;19.90;;;12.77;;
66478;SDS011;53294;47.912;13.526;2023-03-01T01:23:43;25.63;;;13.90;;
66478;SDS011;53294;47.912;13.526;2023-03-01T01:26:21;25.85;;;14.27;;
66478;SDS011;53294;47.912;13.526;2023-03-01T01:28:50;20.08;;;12.23;;
66478;SDS011;53294;47.912;13.526;2023-03-01T01:31:18;23.45;;;14.77;;
66478;SDS011;53294;47.912;13.526;2023-03-01T01:33:45;23.55;;;13.57;;
66478;SDS011;53294;47.912;13.526;2023-03-01T01:36:12;24.98;;;14.90;;
66478;SDS011;53294;47.912;13.526;2023-03-01T01:38:39;20.10;;;12.52;;
66478;SDS011;53294;47.912;13.526;2023-03-01T01:41:06;21.13;;;12.75;;
66478;SDS011;53294;47.912;13.526;2023-03-01T01:43:35;21.98;;;12.55;;
66478;SDS011;53294;47.912;13.526;2023-03-01T01:46:10;20.98;;;12.90;;
66478;SDS011;53294;47.912;13.526;2023-03-01T01:49:00;22.02;;;13.30;;
66478;SDS011;53294;47.912;13.526;2023-03-01T01:51:35;21.85;;;13.32;;
66478;SDS011;53294;47.912;13.526;2023-03-01T01:54:12;24.83;;;13.93;;
66478;SDS011;53294;47.912;13.526;2023-03-01T01:56:44;20.70;;;12.38;;
66478;SDS011;53294;47.912;13.526;2023-03-01T01:59:14;25.40;;;13.80;;
66478;SDS011;53294;47.912;13.526;2023-03-01T02:01:41;24.80;;;15.23;;
66478;SDS011;53294;47.912;13.526;2023-03-01T02:04:09;25.00;;;13.95;;
66478;SDS011;53294;47.912;13.526;2023-03-01T02:06:39;25.55;;;13.65;;
66478;SDS011;53294;47.912;13.526;2023-03-01T02:09:12;23.02;;;13.70;;
66478;SDS011;53294;47.912;13.526;2023-03-01T02:11:40;26.25;;;15.05;;
66478;SDS011;53294;47.912;13.526;2023-03-01T02:14:09;21.42;;;12.80;;
66478;SDS011;53294;47.912;13.526;2023-03-01T02:16:36;22.58;;;12.50;;
66478;SDS011;53294;47.912;13.526;2023-03-01T02:19:03;22.65;;;13.82;;
66478;SDS011;53294;47.912;13.526;2023-03-01T02:21:37;18.23;;;12.13;;
66478;SDS011;53294;47.912;13.526;2023-03-01T02:24:28;25.70;;;14.38;;
66478;SDS011;53294;47.912;13.526;2023-03-01T02:27:06;23.80;;;14.48;;
66478;SDS011;53294;47.912;13.526;2023-03-01T02:29:33;21.77;;;12.85;;
66478;SDS011;53294;47.912;13.526;2023-03-01T02:32:00;25.20;;;12.95;;
66478;SDS011;53294;47.912;13.526;2023-03-01T02:34:29;25.45;;;15.25;;
66478;SDS011;53294;47.912;13.526;2023-03-01T02:37:06;22.88;;;13.18;;
66478;SDS011;53294;47.912;13.526;2023-03-01T02:39:58;21.35;;;12.65;;
66478;SDS011;53294;47.912;13.526;2023-03-01T02:42:36;22.20;;;14.40;;
66478;SDS011;53294;47.912;13.526;2023-03-01T02:45:11;22.38;;;12.95;;
66478;SDS011;53294;47.912;13.526;2023-03-01T02:47:38;22.88;;;12.88;;
66478;SDS011;53294;47.912;13.526;2023-03-01T02:50:12;24.25;;;13.80;;
66478;SDS011;53294;47.912;13.526;2023-03-01T02:53:11;29.08;;;15.20;;
66478;SDS011;53294;47.912;13.526;2023-03-01T02:56:00;24.15;;;14.05;;
66478;SDS011;53294;47.912;13.526;2023-03-01T02:58:27;29.30;;;15.95;;
66478;SDS011;53294;47.912;13.526;2023-03-01T03:00:53;23.52;;;14.52;;
66478;SDS011;53294;47.912;13.526;2023-03-01T03:03:21;26.58;;;15.35;;
66478;SDS011;53294;47.912;13.526;2023-03-01T03:05:48;24.65;;;13.75;;
66478;SDS011;53294;47.912;13.526;2023-03-01T03:08:14;25.80;;;14.07;;
66478;SDS011;53294;47.912;13.526;2023-03-01T03:10:50;26.08;;;14.00;;
66478;SDS011;53294;47.912;13.526;2023-03-01T03:13:17;25.77;;;14.98;;
66478;SDS011;53294;47.912;13.526;2023-03-01T03:15:45;25.92;;;14.30;;
66478;SDS011;53294;47.912;13.526;2023-03-01T03:18:13;23.80;;;15.45;;
66478;SDS011;53294;47.912;13.526;2023-03-01T03:20:42;24.23;;;14.50;;
66478;SDS011;53294;47.912;13.526;2023-03-01T03:23:09;26.15;;;13.25;;
66478;SDS011;53294;47.912;13.526;2023-03-01T03:25:36;24.38;;;15.18;;
66478;SDS011;53294;47.912;13.526;2023-03-01T03:28:04;29.30;;;15.00;;
66478;SDS011;53294;47.912;13.526;2023-03-01T03:30:37;24.83;;;15.20;;
66478;SDS011;53294;47.912;13.526;2023-03-01T03:33:05;28.35;;;15.57;;
66478;SDS011;53294;47.912;13.526;2023-03-01T03:35:33;28.42;;;16.48;;
66478;SDS011;53294;47.912;13.526;2023-03-01T03:38:08;28.77;;;15.48;;
66478;SDS011;53294;47.912;13.526;2023-03-01T03:40:46;25.75;;;16.45;;
66478;SDS011;53294;47.912;13.526;2023-03-01T03:43:14;22.90;;;13.25;;
66478;SDS011;53294;47.912;13.526;2023-03-01T03:45:44;21.20;;;13.13;;
66478;SDS011;53294;47.912;13.526;2023-03-01T03:48:12;27.77;;;15.50;;
66478;SDS011;53294;47.912;13.526;2023-03-01T03:50:39;29.73;;;16.20;;
66478;SDS011;53294;47.912;13.526;2023-03-01T03:53:08;26.52;;;15.95;;
66478;SDS011;53294;47.912;13.526;2023-03-01T03:55:36;26.98;;;14.93;;
66478;SDS011;53294;47.912;13.526;2023-03-01T03:58:06;28.20;;;14.50;;
66478;SDS011;53294;47.912;13.526;2023-03-01T04:03:06;29.77;;;17.77;;
66478;SDS011;53294;47.912;13.526;2023-03-01T04:05:33;27.50;;;13.73;;
66478;SDS011;53294;47.912;13.526;2023-03-01T04:08:01;31.27;;;15.93;;
66478;SDS011;53294;47.912;13.526;2023-03-01T04:10:29;26.23;;;14.82;;
66478;SDS011;53294;47.912;13.526;2023-03-01T04:12:58;27.05;;;14.85;;
66478;SDS011;53294;47.912;13.526;2023-03-01T04:15:25;22.88;;;14.32;;
66478;SDS011;53294;47.912;13.526;2023-03-01T04:17:53;25.70;;;15.27;;
66478;SDS011;53294;47.912;13.526;2023-03-01T04:20:22;29.05;;;15.25;;
66478;SDS011;53294;47.912;13.526;2023-03-01T04:23:03;27.73;;;15.70;;
66478;SDS011;53294;47.912;13.526;2023-03-01T04:25:52;29.13;;;16.77;;
66478;SDS011;53294;47.912;13.526;2023-03-01T04:30:47;31.35;;;15.93;;
66478;SDS011;53294;47.912;13.526;2023-03-01T04:33:13;33.28;;;16.75;;
66478;SDS011;53294;47.912;13.526;2023-03-01T04:35:40;33.00;;;17.02;;
66478;SDS011;53294;47.912;13.526;2023-03-01T04:38:07;27.58;;;15.07;;
66478;SDS011;53294;47.912;13.526;2023-03-01T04:40:34;31.15;;;15.73;;
66478;SDS011;53294;47.912;13.526;2023-03-01T04:43:01;25.35;;;14.75;;
66478;SDS011;53294;47.912;13.526;2023-03-01T04:45:28;27.42;;;16.45;;
66478;SDS011;53294;47.912;13.526;2023-03-01T04:47:55;30.65;;;17.67;;
66478;SDS011;53294;47.912;13.526;2023-03-01T04:50:24;28.02;;;15.85;;
66478;SDS011;53294;47.912;13.526;2023-03-01T04:52:51;33.33;;;16.60;;
66478;SDS011;53294;47.912;13.526;2023-03-01T04:55:18;33.35;;;17.17;;
66478;SDS011;53294;47.912;13.526;2023-03-01T04:57:45;32.42;;;17.13;;
66478;SDS011;53294;47.912;13.526;2023-03-01T05:00:12;32.42;;;18.65;;
66478;SDS011;53294;47.912;13.526;2023-03-01T05:02:57;26.67;;;15.40;;
66478;SDS011;53294;47.912;13.526;2023-03-01T05:07:55;34.85;;;18.33;;
66478;SDS011;53294;47.912;13.526;2023-03-01T05:10:24;31.27;;;17.75;;
66478;SDS011;53294;47.912;13.526;2023-03-01T05:12:51;34.95;;;17.17;;
66478;SDS011;53294;47.912;13.526;2023-03-01T05:15:21;32.97;;;17.48;;
66478;SDS011;53294;47.912;13.526;2023-03-01T05:17:54;32.17;;;17.35;;
66478;SDS011;53294;47.912;13.526;2023-03-01T05:20:25;32.88;;;17.77;;
66478;SDS011;53294;47.912;13.526;2023-03-01T05:22:55;33.20;;;17.23;;
66478;SDS011;53294;47.912;13.526;2023-03-01T05:25:25;34.20;;;18.77;;
66478;SDS011;53294;47.912;13.526;2023-03-01T05:27:52;36.78;;;18.15;;
66478;SDS011;53294;47.912;13.526;2023-03-01T05:30:19;33.22;;;18.08;;
66478;SDS011;53294;47.912;13.526;2023-03-01T05:32:47;38.47;;;21.08;;
66478;SDS011;53294;47.912;13.526;2023-03-01T05:35:16;40.60;;;20.23;;
66478;SDS011;53294;47.912;13.526;2023-03-01T05:37:44;34.50;;;18.50;;
66478;SDS011;53294;47.912;13.526;2023-03-01T05:40:14;35.72;;;18.30;;
66478;SDS011;53294;47.912;13.526;2023-03-01T05:42:46;37.92;;;20.92;;
66478;SDS011;53294;47.912;13.526;2023-03-01T05:45:14;36.87;;;18.67;;
66478;SDS011;53294;47.912;13.526;2023-03-01T05:47:43;36.90;;;19.95;;
66478;SDS011;53294;47.912;13.526;2023-03-01T05:50:22;36.20;;;19.27;;
66478;SDS011;53294;47.912;13.526;2023-03-01T05:53:13;34.70;;;16.88;;
66478;SDS011;53294;47.912;13.526;2023-03-01T05:55:39;35.22;;;18.73;;
66478;SDS011;53294;47.912;13.526;2023-03-01T05:58:07;35.13;;;19.55;;
66478;SDS011;53294;47.912;13.526;2023-03-01T06:00:37;34.30;;;19.40;;
66478;SDS011;53294;47.912;13.526;2023-03-01T06:03:03;33.85;;;19.63;;
66478;SDS011;53294;47.912;13.526;2023-03-01T06:05:30;37.53;;;19.60;;
66478;SDS011;53294;47.912;13.526;2023-03-01T06:08:00;31.92;;;19.48;;
66478;SDS011;53294;47.912;13.526;2023-03-01T06:10:28;36.08;;;18.58;;
66478;SDS011;53294;47.912;13.526;2023-03-01T06:12:55;38.25;;;21.40;;
66478;SDS011;53294;47.912;13.526;2023-03-01T06:15:22;37.60;;;20.23;;
66478;SDS011;53294;47.912;13.526;2023-03-01T06:17:50;40.20;;;20.17;;
66478;SDS011;53294;47.912;13.526;2023-03-01T06:20:21;37.92;;;19.83;;
66478;SDS011;53294;47.912;13.526;2023-03-01T06:22:49;32.40;;;18.87;;
66478;SDS011;53294;47.912;13.526;2023-03-01T06:25:17;36.85;;;21.00;;
66478;SDS011;53294;47.912;13.526;2023-03-01T06:27:46;35.35;;;20.20;;
66478;SDS011;53294;47.912;13.526;2023-03-01T06:30:15;40.50;;;22.85;;
66478;SDS011;53294;47.912;13.526;2023-03-01T06:32:44;38.17;;;20.70;;
66478;SDS011;53294;47.912;13.526;2023-03-01T06:35:11;38.90;;;21.10;;
66478;SDS011;53294;47.912;13.526;2023-03-01T06:37:40;37.03;;;21.25;;
66478;SDS011;53294;47.912;13.526;2023-03-01T06:40:08;36.40;;;20.38;;
66478;SDS011;53294;47.912;13.526;2023-03-01T06:42:38;41.55;;;21.67;;
66478;SDS011;53294;47.912;13.526;2023-03-01T06:45:07;36.78;;;20.42;;
66478;SDS011;53294;47.912;13.526;2023-03-01T06:47:35;42.90;;;22.00;;
66478;SDS011;53294;47.912;13.526;2023-03-01T06:50:02;39.30;;;20.35;;
66478;SDS011;53294;47.912;13.526;2023-03-01T06:52:29;36.55;;;20.50;;
66478;SDS011;53294;47.912;13.526;2023-03-01T06:54:56;37.60;;;20.98;;
66478;SDS011;53294;47.912;13.526;2023-03-01T06:57:22;38.38;;;19.70;;
66478;SDS011;53294;47.912;13.526;2023-03-01T06:59:49;38.83;;;21.38;;
66478;SDS011;53294;47.912;13.526;2023-03-01T07:02:16;40.58;;;21.05;;
66478;SDS011;53294;47.912;13.526;2023-03-01T07:04:43;39.85;;;20.92;;
66478;SDS011;53294;47.912;13.526;2023-03-01T07:07:10;38.17;;;21.08;;
66478;SDS011;53294;47.912;13.526;2023-03-01T07:09:36;39.92;;;22.40;;
66478;SDS011;53294;47.912;13.526;2023-03-01T07:12:03;39.78;;;20.25;;
66478;SDS011;53294;47.912;13.526;2023-03-01T07:14:30;40.42;;;20.42;;
66478;SDS011;53294;47.912;13.526;2023-03-01T07:16:57;38.15;;;20.77;;
66478;SDS011;53294;47.912;13.526;2023-03-01T07:19:23;38.83;;;21.67;;
66478;SDS011;53294;47.912;13.526;2023-03-01T07:21:50;40.28;;;22.17;;
66478;SDS011;53294;47.912;13.526;2023-03-01T07:24:16;35.22;;;19.98;;
66478;SDS011;53294;47.912;13.526;2023-03-01T07:26:43;42.58;;;21.90;;
66478;SDS011;53294;47.912;13.526;2023-03-01T07:29:10;37.95;;;19.88;;
66478;SDS011;53294;47.912;13.526;2023-03-01T07:31:37;39.22;;;20.02;;
66478;SDS011;53294;47.912;13.526;2023-03-01T07:34:04;37.28;;;20.80;;
66478;SDS011;53294;47.912;13.526;2023-03-01T07:36:31;39.05;;;21.38;;
66478;SDS011;53294;47.912;13.526;2023-03-01T07:38:58;34.60;;;18.80;;
66478;SDS011;53294;47.912;13.526;2023-03-01T07:41:24;36.08;;;19.45;;
66478;SDS011;53294;47.912;13.526;2023-03-01T07:43:51;38.15;;;19.58;;
66478;SDS011;53294;47.912;13.526;2023-03-01T07:46:18;34.50;;;19.02;;
66478;SDS011;53294;47.912;13.526;2023-03-01T07:48:45;33.80;;;19.23;;
66478;SDS011;53294;47.912;13.526;2023-03-01T07:51:12;34.80;;;20.42;;
66478;SDS011;53294;47.912;13.526;2023-03-01T07:53:39;38.65;;;18.80;;
66478;SDS011;53294;47.912;13.526;2023-03-01T07:56:08;38.80;;;21.33;;
66478;SDS011;53294;47.912;13.526;2023-03-01T07:58:36;36.70;;;21.63;;
66478;SDS011;53294;47.912;13.526;2023-03-01T08:01:05;35.70;;;19.05;;
66478;SDS011;53294;47.912;13.526;2023-03-01T08:03:34;40.47;;;20.80;;
66478;SDS011;53294;47.912;13.526;2023-03-01T08:06:02;33.28;;;18.80;;
66478;SDS011;53294;47.912;13.526;2023-03-01T08:08:30;42.17;;;21.52;;
66478;SDS011;53294;47.912;13.526;2023-03-01T08:10:58;36.72;;;20.83;;
66478;SDS011;53294;47.912;13.526;2023-03-01T08:13:25;36.53;;;19.38;;
66478;SDS011;53294;47.912;13.526;2023-03-01T08:15:52;37.20;;;19.80;;
66478;SDS011;53294;47.912;13.526;2023-03-01T08:18:19;37.97;;;21.63;;
66478;SDS011;53294;47.912;13.526;2023-03-01T08:20:47;36.65;;;19.98;;
66478;SDS011;53294;47.912;13.526;2023-03-01T08:23:14;31.85;;;18.77;;
66478;SDS011;53294;47.912;13.526;2023-03-01T08:25:40;37.95;;;19.55;;
66478;SDS011;53294;47.912;13.526;2023-03-01T08:28:07;38.83;;;21.10;;
66478;SDS011;53294;47.912;13.526;2023-03-01T08:30:34;37.35;;;19.30;;
66478;SDS011;53294;47.912;13.526;2023-03-01T08:33:01;35.78;;;20.50;;
66478;SDS011;53294;47.912;13.526;2023-03-01T08:35:27;35.95;;;20.42;;
66478;SDS011;53294;47.912;13.526;2023-03-01T08:37:54;37.97;;;20.95;;
66478;SDS011;53294;47.912;13.526;2023-03-01T08:40:21;36.72;;;20.17;;
66478;SDS011;53294;47.912;13.526;2023-03-01T08:42:47;32.80;;;20.00;;
66478;SDS011;53294;47.912;13.526;2023-03-01T08:45:14;37.50;;;20.95;;
66478;SDS011;53294;47.912;13.526;2023-03-01T08:47:44;37.38;;;19.88;;
66478;SDS011;53294;47.912;13.526;2023-03-01T08:50:11;32.60;;;17.85;;
66478;SDS011;53294;47.912;13.526;2023-03-01T08:52:38;30.50;;;18.05;;
66478;SDS011;53294;47.912;13.526;2023-03-01T08:55:05;31.35;;;18.35;;
66478;SDS011;53294;47.912;13.526;2023-03-01T08:57:32;32.97;;;18.17;;
66478;SDS011;53294;47.912;13.526;2023-03-01T08:59:59;33.58;;;16.80;;
66478;SDS011;53294;47.912;13.526;2023-03-01T09:02:25;28.17;;;16.65;;
66478;SDS011;53294;47.912;13.526;2023-03-01T09:04:52;30.05;;;17.73;;
66478;SDS011;53294;47.912;13.526;2023-03-01T09:07:19;33.47;;;17.02;;
66478;SDS011;53294;47.912;13.526;2023-03-01T09:09:45;31.17;;;17.17;;
66478;SDS011;53294;47.912;13.526;2023-03-01T09:12:12;30.95;;;17.70;;
66478;SDS011;53294;47.912;13.526;2023-03-01T09:14:39;33.15;;;18.25;;
66478;SDS011;53294;47.912;13.526;2023-03-01T09:17:07;31.27;;;17.02;;
66478;SDS011;53294;47.912;13.526;2023-03-01T09:19:34;31.95;;;16.92;;
66478;SDS011;53294;47.912;13.526;2023-03-01T09:22:02;30.50;;;17.08;;
66478;SDS011;53294;47.912;13.526;2023-03-01T09:24:30;34.42;;;18.50;;
66478;SDS011;53294;47.912;13.526;2023-03-01T09:26:56;30.30;;;17.67;;
66478;SDS011;53294;47.912;13.526;2023-03-01T09:29:24;29.73;;;16.67;;
66478;SDS011;53294;47.912;13.526;2023-03-01T09:31:50;31.02;;;17.13;;
66478;SDS011;53294;47.912;13.526;2023-03-01T09:34:17;33.53;;;17.90;;
66478;SDS011;53294;47.912;13.526;2023-03-01T09:36:49;27.05;;;17.38;;
66478;SDS011;53294;47.912;13.526;2023-03-01T09:39:17;26.45;;;16.35;;
66478;SDS011;53294;47.912;13.526;2023-03-01T09:47:01;30.95;;;18.13;;
66478;SDS011;53294;47.912;13.526;2023-03-01T09:49:30;28.83;;;17.45;;
66478;SDS011;53294;47.912;13.526;2023-03-01T09:52:01;35.47;;;19.27;;
66478;SDS011;53294;47.912;13.526;2023-03-01T09:54:29;32.70;;;18.50;;
66478;SDS011;53294;47.912;13.526;2023-03-01T10:05:11;29.73;;;17.80;;
66478;SDS011;53294;47.912;13.526;2023-03-01T10:10:39;31.42;;;17.73;;
66478;SDS011;53294;47.912;13.526;2023-03-01T10:13:29;29.95;;;19.55;;
66478;SDS011;53294;47.912;13.526;2023-03-01T10:19:27;29.90;;;17.60;;
66478;SDS011;53294;47.912;13.526;2023-03-01T10:21:56;27.50;;;16.27;;
66478;SDS011;53294;47.912;13.526;2023-03-01T10:26:58;29.58;;;17.63;;
66478;SDS011;53294;47.912;13.526;2023-03-01T10:32:26;33.63;;;17.52;;
66478;SDS011;53294;47.912;13.526;2023-03-01T10:34:53;29.33;;;18.10;;
66478;SDS011;53294;47.912;13.526;2023-03-01T10:37:20;29.58;;;17.63;;
66478;SDS011;53294;47.912;13.526;2023-03-01T10:40:03;26.40;;;16.52;;
66478;SDS011;53294;47.912;13.526;2023-03-01T10:42:38;27.73;;;15.27;;
66478;SDS011;53294;47.912;13.526;2023-03-01T10:47:45;24.63;;;15.48;;
66478;SDS011;53294;47.912;13.526;2023-03-01T10:50:22;23.63;;;15.40;;
66478;SDS011;53294;47.912;13.526;2023-03-01T10:56:06;25.27;;;16.63;;
66478;SDS011;53294;47.912;13.526;2023-03-01T10:58:38;25.02;;;15.73;;
66478;SDS011;53294;47.912;13.526;2023-03-01T11:03:42;27.55;;;17.05;;
66478;SDS011;53294;47.912;13.526;2023-03-01T11:08:40;24.15;;;16.83;;
66478;SDS011;53294;47.912;13.526;2023-03-01T11:13:40;26.85;;;17.27;;
66478;SDS011;53294;47.912;13.526;2023-03-01T11:16:22;26.88;;;17.63;;
66478;SDS011;53294;47.912;13.526;2023-03-01T11:19:24;26.08;;;18.50;;
66478;SDS011;53294;47.912;13.526;2023-03-01T11:22:04;23.15;;;15.73;;
66478;SDS011;53294;47.912;13.526;2023-03-01T11:24:45;23.33;;;15.57;;
66478;SDS011;53294;47.912;13.526;2023-03-01T11:27:31;25.58;;;16.77;;
66478;SDS011;53294;47.912;13.526;2023-03-01T11:32:40;24.67;;;16.50;;
66478;SDS011;53294;47.912;13.526;2023-03-01T11:35:15;23.67;;;16.08;;
66478;SDS011;53294;47.912;13.526;2023-03-01T11:38:04;23.42;;;15.25;;
66478;SDS011;53294;47.912;13.526;2023-03-01T11:54:54;22.45;;;16.92;;
66478;SDS011;53294;47.912;13.526;2023-03-01T12:08:32;24.38;;;16.25;;
66478;SDS011;53294;47.912;13.526;2023-03-01T12:19:35;22.35;;;15.85;;
66478;SDS011;53294;47.912;13.526;2023-03-01T12:44:11;22.67;;;15.35;;
66478;SDS011;53294;47.912;13.526;2023-03-01T12:51:54;18.25;;;13.50;;
66478;SDS011;53294;47.912;13.526;2023-03-01T12:54:34;21.30;;;15.60;;
66478;SDS011;53294;47.912;13.526;2023-03-01T12:57:06;19.88;;;14.55;;
66478;SDS011;53294;47.912;13.526;2023-03-01T13:02:45;22.05;;;15.95;;
66478;SDS011;53294;47.912;13.526;2023-03-01T13:11:04;23.75;;;15.27;;
66478;SDS011;53294;47.912;13.526;2023-03-01T13:13:38;21.37;;;14.13;;
66478;SDS011;53294;47.912;13.526;2023-03-01T13:16:21;21.48;;;13.95;;
66478;SDS011;53294;47.912;13.526;2023-03-01T13:19:06;19.15;;;13.77;;
66478;SDS011;53294;47.912;13.526;2023-03-01T13:21:50;23.40;;;16.23;;
66478;SDS011;53294;47.912;13.526;2023-03-01T13:37:41;27.10;;;18.00;;
66478;SDS011;53294;47.912;13.526;2023-03-01T13:40:56;23.98;;;16.52;;
66478;SDS011;53294;47.912;13.526;2023-03-01T13:42:55;22.27;;;16.02;;
66478;SDS011;53294;47.912;13.526;2023-03-01T13:45:40;23.92;;;16.15;;
66478;SDS011;53294;47.912;13.526;2023-03-01T13:48:15;21.88;;;15.80;;
66478;SDS011;53294;47.912;13.526;2023-03-01T13:51:02;24.38;;;18.15;;
66478;SDS011;53294;47.912;13.526;2023-03-01T13:53:33;22.42;;;15.45;;
66478;SDS011;53294;47.912;13.526;2023-03-01T13:56:07;29.05;;;17.17;;
66478;SDS011;53294;47.912;13.526;2023-03-01T13:58:44;24.55;;;17.73;;
66478;SDS011;53294;47.912;13.526;2023-03-01T14:03:58;22.45;;;15.95;;
66478;SDS011;53294;47.912;13.526;2023-03-01T14:06:27;25.65;;;17.48;;
66478;SDS011;53294;47.912;13.526;2023-03-01T14:09:02;22.58;;;16.98;;
66478;SDS011;53294;47.912;13.526;2023-03-01T14:19:26;23.15;;;14.80;;
66478;SDS011;53294;47.912;13.526;2023-03-01T14:24:31;25.00;;;14.90;;
66478;SDS011;53294;47.912;13.526;2023-03-01T14:27:12;21.30;;;14.48;;
66478;SDS011;53294;47.912;13.526;2023-03-01T14:29:40;25.73;;;17.15;;
66478;SDS011;53294;47.912;13.526;2023-03-01T14:32:11;22.88;;;15.90;;
66478;SDS011;53294;47.912;13.526;2023-03-01T14:34:49;24.73;;;16.52;;
66478;SDS011;53294;47.912;13.526;2023-03-01T14:37:29;25.45;;;16.55;;
66478;SDS011;53294;47.912;13.526;2023-03-01T14:39:58;24.20;;;15.80;;
66478;SDS011;53294;47.912;13.526;2023-03-01T14:42:28;23.83;;;15.82;;
66478;SDS011;53294;47.912;13.526;2023-03-01T14:45:05;23.08;;;16.33;;
66478;SDS011;53294;47.912;13.526;2023-03-01T14:47:34;25.02;;;17.55;;
66478;SDS011;53294;47.912;13.526;2023-03-01T14:52:39;25.77;;;17.05;;
66478;SDS011;53294;47.912;13.526;2023-03-01T14:55:18;23.70;;;15.85;;
66478;SDS011;53294;47.912;13.526;2023-03-01T14:57:47;24.77;;;16.35;;
66478;SDS011;53294;47.912;13.526;2023-03-01T15:00:25;25.85;;;16.92;;
66478;SDS011;53294;47.912;13.526;2023-03-01T15:02:55;26.98;;;17.33;;
66478;SDS011;53294;47.912;13.526;2023-03-01T15:07:56;24.10;;;15.13;;
66478;SDS011;53294;47.912;13.526;2023-03-01T15:10:26;25.33;;;17.08;;
66478;SDS011;53294;47.912;13.526;2023-03-01T15:12:55;25.05;;;16.83;;
66478;SDS011;53294;47.912;13.526;2023-03-01T15:18:00;25.85;;;16.00;;
66478;SDS011;53294;47.912;13.526;2023-03-01T15:20:30;26.10;;;17.38;;
66478;SDS011;53294;47.912;13.526;2023-03-01T15:23:01;26.10;;;17.02;;
66478;SDS011;53294;47.912;13.526;2023-03-01T15:25:29;27.90;;;17.67;;
66478;SDS011;53294;47.912;13.526;2023-03-01T15:27:58;26.08;;;17.38;;
66478;SDS011;53294;47.912;13.526;2023-03-01T15:30:27;28.67;;;17.35;;
66478;SDS011;53294;47.912;13.526;2023-03-01T15:35:56;25.45;;;15.65;;
66478;SDS011;53294;47.912;13.526;2023-03-01T15:38:28;28.45;;;17.48;;
66478;SDS011;53294;47.912;13.526;2023-03-01T15:40:56;24.67;;;16.17;;
66478;SDS011;53294;47.912;13.526;2023-03-01T15:43:38;26.53;;;16.90;;
66478;SDS011;53294;47.912;13.526;2023-03-01T15:46:05;29.33;;;18.95;;
66478;SDS011;53294;47.912;13.526;2023-03-01T15:48:50;29.10;;;16.08;;
66478;SDS011;53294;47.912;13.526;2023-03-01T15:51:21;24.08;;;15.90;;
66478;SDS011;53294;47.912;13.526;2023-03-01T15:53:53;27.73;;;17.25;;
66478;SDS011;53294;47.912;13.526;2023-03-01T15:56:20;30.35;;;17.95;;
66478;SDS011;53294;47.912;13.526;2023-03-01T15:58:47;29.63;;;17.35;;
66478;SDS011;53294;47.912;13.526;2023-03-01T16:01:14;28.02;;;17.77;;
66478;SDS011;53294;47.912;13.526;2023-03-01T16:03:45;26.13;;;16.67;;
66478;SDS011;53294;47.912;13.526;2023-03-01T16:06:12;26.30;;;17.25;;
66478;SDS011;53294;47.912;13.526;2023-03-01T16:08:39;24.38;;;16.05;;
66478;SDS011;53294;47.912;13.526;2023-03-01T16:11:17;26.55;;;15.88;;
66478;SDS011;53294;47.912;13.526;2023-03-01T16:13:45;26.48;;;15.43;;
66478;SDS011;53294;47.912;13.526;2023-03-01T16:16:12;28.25;;;16.40;;
66478;SDS011;53294;47.912;13.526;2023-03-01T16:18:43;28.13;;;16.70;;
66478;SDS011;53294;47.912;13.526;2023-03-01T16:21:11;24.80;;;14.43;;
66478;SDS011;53294;47.912;13.526;2023-03-01T16:23:39;25.70;;;16.08;;
66478;SDS011;53294;47.912;13.526;2023-03-01T16:26:06;28.77;;;17.20;;
66478;SDS011;53294;47.912;13.526;2023-03-01T16:28:33;29.02;;;17.02;;
66478;SDS011;53294;47.912;13.526;2023-03-01T16:30:59;29.42;;;16.10;;
66478;SDS011;53294;47.912;13.526;2023-03-01T16:33:28;27.63;;;16.23;;
66478;SDS011;53294;47.912;13.526;2023-03-01T16:36:00;26.85;;;15.70;;
66478;SDS011;53294;47.912;13.526;2023-03-01T16:38:28;26.92;;;14.88;;
66478;SDS011;53294;47.912;13.526;2023-03-01T16:40:57;24.00;;;15.10;;
66478;SDS011;53294;47.912;13.526;2023-03-01T16:43:23;28.33;;;15.40;;
66478;SDS011;53294;47.912;13.526;2023-03-01T16:45:50;27.45;;;15.63;;
66478;SDS011;53294;47.912;13.526;2023-03-01T16:48:17;28.13;;;16.60;;
66478;SDS011;53294;47.912;13.526;2023-03-01T16:50:44;32.67;;;16.30;;
66478;SDS011;53294;47.912;13.526;2023-03-01T16:53:10;26.15;;;15.20;;
66478;SDS011;53294;47.912;13.526;2023-03-01T16:55:38;27.88;;;16.65;;
66478;SDS011;53294;47.912;13.526;2023-03-01T17:00:38;27.67;;;15.82;;
66478;SDS011;53294;47.912;13.526;2023-03-01T17:03:04;24.80;;;15.15;;
66478;SDS011;53294;47.912;13.526;2023-03-01T17:05:31;27.33;;;14.60;;